sensor_id;sensor_type;location;lat;lon;timestamp;temperature;humidity
17307;DHT22;8771;48.048;7.682;2023-03-03T00:00:19;3.40;70.90
17307;DHT22;8771;48.048;7.682;2023-03-03T00:05:21;3.30;70.90
17307;DHT22;8771;48.048;7.682;2023-03-03T00:10:24;3.20;71.00
17307;DHT22;8771;48.048;7.682;2023-03-03T00:15:29;3.20;71.10
17307;DHT22;8771;48.048;7.682;2023-03-03T00:20:35;3.20;71.10
17307;DHT22;8771;48.048;7.682;2023-03-03T00:25:40;3.10;70.90
17307;DHT22;8771;48.048;7.682;2023-03-03T00:30:46;3.10;71.00
17307;DHT22;8771;48.048;7.682;2023-03-03T00:35:48;3.00;71.00
17307;DHT22;8771;48.048;7.682;2023-03-03T00:40:50;2.80;71.20
17307;DHT22;8771;48.048;7.682;2023-03-03T00:45:55;2.70;71.50
17307;DHT22;8771;48.048;7.682;2023-03-03T00:50:59;2.70;71.50
17307;DHT22;8771;48.048;7.682;2023-03-03T00:56:02;2.70;71.40
17307;DHT22;8771;48.048;7.682;2023-03-03T01:01:08;2.70;71.30
17307;DHT22;8771;48.048;7.682;2023-03-03T01:06:10;2.60;71.30
17307;DHT22;8771;48.048;7.682;2023-03-03T01:11:15;2.60;71.30
17307;DHT22;8771;48.048;7.682;2023-03-03T01:16:19;2.60;71.30
17307;DHT22;8771;48.048;7.682;2023-03-03T01:21:21;2.50;71.30
17307;DHT22;8771;48.048;7.682;2023-03-03T01:26:23;2.50;71.30
17307;DHT22;8771;48.048;7.682;2023-03-03T01:31:27;2.50;71.30
17307;DHT22;8771;48.048;7.682;2023-03-03T01:36:30;2.50;71.30
17307;DHT22;8771;48.048;7.682;2023-03-03T01:41:33;2.60;71.30
17307;DHT22;8771;48.048;7.682;2023-03-03T01:46:51;2.60;71.20
17307;DHT22;8771;48.048;7.682;2023-03-03T01:51:57;2.60;71.10
17307;DHT22;8771;48.048;7.682;2023-03-03T01:57:02;2.60;71.10
17307;DHT22;8771;48.048;7.682;2023-03-03T02:02:07;2.60;71.10
17307;DHT22;8771;48.048;7.682;2023-03-03T02:07:10;2.60;71.20
17307;DHT22;8771;48.048;7.682;2023-03-03T02:12:16;2.60;71.20
17307;DHT22;8771;48.048;7.682;2023-03-03T02:17:20;2.50;71.20
17307;DHT22;8771;48.048;7.682;2023-03-03T02:22:31;2.60;71.20
17307;DHT22;8771;48.048;7.682;2023-03-03T02:27:36;2.50;71.10
17307;DHT22;8771;48.048;7.682;2023-03-03T02:32:39;2.60;71.20
17307;DHT22;8771;48.048;7.682;2023-03-03T02:37:42;2.60;71.20
17307;DHT22;8771;48.048;7.682;2023-03-03T02:42:47;2.50;71.20
17307;DHT22;8771;48.048;7.682;2023-03-03T02:47:50;2.40;71.30
17307;DHT22;8771;48.048;7.682;2023-03-03T02:52:52;2.30;71.30
17307;DHT22;8771;48.048;7.682;2023-03-03T02:57:56;2.30;71.30
17307;DHT22;8771;48.048;7.682;2023-03-03T03:02:59;2.30;71.30
17307;DHT22;8771;48.048;7.682;2023-03-03T03:08:01;2.30;71.30
17307;DHT22;8771;48.048;7.682;2023-03-03T03:13:04;2.20;71.20
17307;DHT22;8771;48.048;7.682;2023-03-03T03:18:07;2.20;71.20
17307;DHT22;8771;48.048;7.682;2023-03-03T03:23:11;2.20;71.30
17307;DHT22;8771;48.048;7.682;2023-03-03T03:28:15;2.10;71.30
17307;DHT22;8771;48.048;7.682;2023-03-03T03:33:19;2.10;71.30
17307;DHT22;8771;48.048;7.682;2023-03-03T03:38:22;2.10;71.30
17307;DHT22;8771;48.048;7.682;2023-03-03T03:43:26;2.10;71.30
17307;DHT22;8771;48.048;7.682;2023-03-03T03:48:29;2.10;71.40
17307;DHT22;8771;48.048;7.682;2023-03-03T03:53:31;2.10;71.40
17307;DHT22;8771;48.048;7.682;2023-03-03T03:58:34;2.00;71.40
17307;DHT22;8771;48.048;7.682;2023-03-03T04:03:36;2.00;71.40
17307;DHT22;8771;48.048;7.682;2023-03-03T04:08:38;2.00;71.30
17307;DHT22;8771;48.048;7.682;2023-03-03T04:13:42;2.00;71.30
17307;DHT22;8771;48.048;7.682;2023-03-03T04:18:44;2.00;71.20
17307;DHT22;8771;48.048;7.682;2023-03-03T04:23:47;2.00;71.20
17307;DHT22;8771;48.048;7.682;2023-03-03T04:28:50;2.00;71.20
17307;DHT22;8771;48.048;7.682;2023-03-03T04:33:53;2.00;71.20
17307;DHT22;8771;48.048;7.682;2023-03-03T04:38:58;2.00;71.20
17307;DHT22;8771;48.048;7.682;2023-03-03T04:44:02;2.00;71.20
17307;DHT22;8771;48.048;7.682;2023-03-03T04:49:04;2.00;71.20
17307;DHT22;8771;48.048;7.682;2023-03-03T04:54:09;2.00;71.20
17307;DHT22;8771;48.048;7.682;2023-03-03T04:59:12;2.00;71.10
17307;DHT22;8771;48.048;7.682;2023-03-03T05:04:15;2.00;71.20
17307;DHT22;8771;48.048;7.682;2023-03-03T05:09:17;1.90;71.30
17307;DHT22;8771;48.048;7.682;2023-03-03T05:14:20;2.00;71.40
17307;DHT22;8771;48.048;7.682;2023-03-03T05:19:22;2.00;71.30
17307;DHT22;8771;48.048;7.682;2023-03-03T05:24:25;2.00;71.20
17307;DHT22;8771;48.048;7.682;2023-03-03T05:29:28;2.00;71.20
17307;DHT22;8771;48.048;7.682;2023-03-03T05:34:31;2.10;71.20
17307;DHT22;8771;48.048;7.682;2023-03-03T05:39:34;2.10;71.20
17307;DHT22;8771;48.048;7.682;2023-03-03T05:44:38;2.10;71.20
17307;DHT22;8771;48.048;7.682;2023-03-03T05:49:40;2.00;71.40
17307;DHT22;8771;48.048;7.682;2023-03-03T05:54:43;2.00;71.40
17307;DHT22;8771;48.048;7.682;2023-03-03T05:59:47;2.10;71.40
17307;DHT22;8771;48.048;7.682;2023-03-03T06:04:49;2.10;71.30
17307;DHT22;8771;48.048;7.682;2023-03-03T06:09:51;2.20;71.20
17307;DHT22;8771;48.048;7.682;2023-03-03T06:14:56;2.30;71.30
17307;DHT22;8771;48.048;7.682;2023-03-03T06:19:58;2.40;71.20
17307;DHT22;8771;48.048;7.682;2023-03-03T06:25:01;2.40;71.20
17307;DHT22;8771;48.048;7.682;2023-03-03T06:30:06;2.40;71.20
17307;DHT22;8771;48.048;7.682;2023-03-03T06:35:08;2.50;71.20
17307;DHT22;8771;48.048;7.682;2023-03-03T06:40:11;2.50;71.20
17307;DHT22;8771;48.048;7.682;2023-03-03T06:45:18;2.50;71.30
17307;DHT22;8771;48.048;7.682;2023-03-03T06:50:20;2.60;71.20
17307;DHT22;8771;48.048;7.682;2023-03-03T06:55:23;2.70;71.10
17307;DHT22;8771;48.048;7.682;2023-03-03T07:00:27;2.80;71.00
17307;DHT22;8771;48.048;7.682;2023-03-03T07:05:31;2.90;71.00
17307;DHT22;8771;48.048;7.682;2023-03-03T07:10:34;3.00;71.00
17307;DHT22;8771;48.048;7.682;2023-03-03T07:15:38;3.10;71.00
17307;DHT22;8771;48.048;7.682;2023-03-03T07:20:40;3.10;70.90
17307;DHT22;8771;48.048;7.682;2023-03-03T07:25:43;3.20;70.90
17307;DHT22;8771;48.048;7.682;2023-03-03T07:30:47;3.30;70.90
17307;DHT22;8771;48.048;7.682;2023-03-03T07:35:51;3.40;70.80
17307;DHT22;8771;48.048;7.682;2023-03-03T07:40:56;3.40;70.80
17307;DHT22;8771;48.048;7.682;2023-03-03T07:46:18;3.50;70.80
17307;DHT22;8771;48.048;7.682;2023-03-03T07:51:25;3.60;70.70
17307;DHT22;8771;48.048;7.682;2023-03-03T07:56:29;3.80;70.70
17307;DHT22;8771;48.048;7.682;2023-03-03T08:01:39;3.80;70.60
17307;DHT22;8771;48.048;7.682;2023-03-03T08:06:47;3.90;70.60
17307;DHT22;8771;48.048;7.682;2023-03-03T08:11:52;4.00;70.60
17307;DHT22;8771;48.048;7.682;2023-03-03T08:16:58;4.10;70.60
17307;DHT22;8771;48.048;7.682;2023-03-03T08:22:05;4.20;70.60
17307;DHT22;8771;48.048;7.682;2023-03-03T08:27:10;4.30;70.60
17307;DHT22;8771;48.048;7.682;2023-03-03T08:32:14;4.40;70.40
17307;DHT22;8771;48.048;7.682;2023-03-03T08:37:16;4.50;70.40
17307;DHT22;8771;48.048;7.682;2023-03-03T08:42:17;4.50;70.40
17307;DHT22;8771;48.048;7.682;2023-03-03T08:47:21;4.60;70.40
17307;DHT22;8771;48.048;7.682;2023-03-03T08:52:23;4.80;70.40
17307;DHT22;8771;48.048;7.682;2023-03-03T08:57:26;4.90;70.30
17307;DHT22;8771;48.048;7.682;2023-03-03T09:02:29;5.00;70.10
17307;DHT22;8771;48.048;7.682;2023-03-03T09:07:32;5.10;70.20
17307;DHT22;8771;48.048;7.682;2023-03-03T09:12:37;5.20;70.20
17307;DHT22;8771;48.048;7.682;2023-03-03T09:17:40;5.40;70.00
17307;DHT22;8771;48.048;7.682;2023-03-03T09:22:44;5.50;70.00
17307;DHT22;8771;48.048;7.682;2023-03-03T09:27:46;5.60;69.90
17307;DHT22;8771;48.048;7.682;2023-03-03T09:32:51;5.70;69.90
17307;DHT22;8771;48.048;7.682;2023-03-03T09:37:53;5.80;69.70
17307;DHT22;8771;48.048;7.682;2023-03-03T09:43:00;6.00;69.70
17307;DHT22;8771;48.048;7.682;2023-03-03T09:48:17;6.10;69.80
17307;DHT22;8771;48.048;7.682;2023-03-03T09:53:31;6.10;69.80
17307;DHT22;8771;48.048;7.682;2023-03-03T09:58:47;6.30;69.70
17307;DHT22;8771;48.048;7.682;2023-03-03T10:04:17;6.50;69.60
17307;DHT22;8771;48.048;7.682;2023-03-03T10:09:43;6.60;69.50
17307;DHT22;8771;48.048;7.682;2023-03-03T10:15:07;6.70;69.50
17307;DHT22;8771;48.048;7.682;2023-03-03T10:20:33;6.80;69.40
17307;DHT22;8771;48.048;7.682;2023-03-03T10:25:39;7.00;69.40
17307;DHT22;8771;48.048;7.682;2023-03-03T10:30:46;7.20;69.30
17307;DHT22;8771;48.048;7.682;2023-03-03T10:41:39;7.50;69.10
17307;DHT22;8771;48.048;7.682;2023-03-03T10:52:21;7.90;69.00
17307;DHT22;8771;48.048;7.682;2023-03-03T10:57:33;8.10;68.80
17307;DHT22;8771;48.048;7.682;2023-03-03T11:02:42;8.30;68.70
17307;DHT22;8771;48.048;7.682;2023-03-03T11:07:54;8.40;68.60
17307;DHT22;8771;48.048;7.682;2023-03-03T11:13:06;8.60;68.50
17307;DHT22;8771;48.048;7.682;2023-03-03T11:18:27;8.90;68.50
17307;DHT22;8771;48.048;7.682;2023-03-03T11:23:59;9.10;68.30
17307;DHT22;8771;48.048;7.682;2023-03-03T11:29:14;9.30;68.20
17307;DHT22;8771;48.048;7.682;2023-03-03T11:39:52;9.90;67.70
17307;DHT22;8771;48.048;7.682;2023-03-03T11:44:59;10.20;67.70
17307;DHT22;8771;48.048;7.682;2023-03-03T11:50:04;10.30;67.40
17307;DHT22;8771;48.048;7.682;2023-03-03T11:55:16;10.40;67.50
17307;DHT22;8771;48.048;7.682;2023-03-03T12:00:26;10.40;67.60
17307;DHT22;8771;48.048;7.682;2023-03-03T12:05:38;10.50;67.70
17307;DHT22;8771;48.048;7.682;2023-03-03T12:10:49;10.50;67.70
17307;DHT22;8771;48.048;7.682;2023-03-03T12:16:05;10.60;67.70
17307;DHT22;8771;48.048;7.682;2023-03-03T12:21:23;10.80;67.70
17307;DHT22;8771;48.048;7.682;2023-03-03T12:26:35;10.80;67.60
17307;DHT22;8771;48.048;7.682;2023-03-03T12:31:49;10.90;67.60
17307;DHT22;8771;48.048;7.682;2023-03-03T12:37:08;11.00;67.50
17307;DHT22;8771;48.048;7.682;2023-03-03T12:42:21;11.00;68.40
17307;DHT22;8771;48.048;7.682;2023-03-03T12:47:28;11.00;67.70
17307;DHT22;8771;48.048;7.682;2023-03-03T12:52:39;10.90;67.90
17307;DHT22;8771;48.048;7.682;2023-03-03T12:57:52;10.80;68.00
17307;DHT22;8771;48.048;7.682;2023-03-03T13:03:04;10.70;68.10
17307;DHT22;8771;48.048;7.682;2023-03-03T13:08:20;10.70;68.10
17307;DHT22;8771;48.048;7.682;2023-03-03T13:13:37;10.70;68.10
17307;DHT22;8771;48.048;7.682;2023-03-03T13:18:49;10.80;68.10
17307;DHT22;8771;48.048;7.682;2023-03-03T13:24:01;11.00;68.00
17307;DHT22;8771;48.048;7.682;2023-03-03T13:29:14;11.10;67.90
17307;DHT22;8771;48.048;7.682;2023-03-03T13:34:29;11.10;67.80
17307;DHT22;8771;48.048;7.682;2023-03-03T13:39:37;11.00;67.80
17307;DHT22;8771;48.048;7.682;2023-03-03T13:44:43;10.90;68.00
17307;DHT22;8771;48.048;7.682;2023-03-03T13:50:21;10.60;68.10
17307;DHT22;8771;48.048;7.682;2023-03-03T13:55:28;10.50;68.40
17307;DHT22;8771;48.048;7.682;2023-03-03T14:00:43;10.60;68.40
17307;DHT22;8771;48.048;7.682;2023-03-03T14:05:56;10.60;67.50
17307;DHT22;8771;48.048;7.682;2023-03-03T14:11:08;10.80;68.20
17307;DHT22;8771;48.048;7.682;2023-03-03T14:22:21;11.00;68.00
17307;DHT22;8771;48.048;7.682;2023-03-03T14:27:32;11.10;67.80
17307;DHT22;8771;48.048;7.682;2023-03-03T14:32:35;11.10;67.70
17307;DHT22;8771;48.048;7.682;2023-03-03T14:37:44;11.20;67.60
17307;DHT22;8771;48.048;7.682;2023-03-03T14:42:52;11.30;67.70
17307;DHT22;8771;48.048;7.682;2023-03-03T14:47:56;11.30;67.60
17307;DHT22;8771;48.048;7.682;2023-03-03T14:53:12;11.30;67.70
17307;DHT22;8771;48.048;7.682;2023-03-03T14:58:29;11.40;67.70
17307;DHT22;8771;48.048;7.682;2023-03-03T15:03:34;11.30;67.80
17307;DHT22;8771;48.048;7.682;2023-03-03T15:08:41;11.10;68.00
17307;DHT22;8771;48.048;7.682;2023-03-03T15:13:44;10.90;68.20
17307;DHT22;8771;48.048;7.682;2023-03-03T15:19:16;10.90;68.40
17307;DHT22;8771;48.048;7.682;2023-03-03T15:24:33;10.90;68.40
17307;DHT22;8771;48.048;7.682;2023-03-03T15:29:43;10.90;68.20
17307;DHT22;8771;48.048;7.682;2023-03-03T15:34:52;10.80;68.20
17307;DHT22;8771;48.048;7.682;2023-03-03T15:40:13;10.70;68.20
17307;DHT22;8771;48.048;7.682;2023-03-03T15:45:31;10.60;68.30
17307;DHT22;8771;48.048;7.682;2023-03-03T15:50:50;10.60;68.30
17307;DHT22;8771;48.048;7.682;2023-03-03T15:56:13;10.50;68.30
17307;DHT22;8771;48.048;7.682;2023-03-03T16:01:24;10.40;68.30
17307;DHT22;8771;48.048;7.682;2023-03-03T16:06:37;10.40;68.30
17307;DHT22;8771;48.048;7.682;2023-03-03T16:11:44;10.30;68.30
17307;DHT22;8771;48.048;7.682;2023-03-03T16:16:53;10.30;68.40
17307;DHT22;8771;48.048;7.682;2023-03-03T16:22:08;10.20;68.60
17307;DHT22;8771;48.048;7.682;2023-03-03T16:27:17;10.10;68.60
17307;DHT22;8771;48.048;7.682;2023-03-03T16:32:30;10.00;68.60
17307;DHT22;8771;48.048;7.682;2023-03-03T16:37:37;10.00;68.70
17307;DHT22;8771;48.048;7.682;2023-03-03T16:42:46;9.90;68.70
17307;DHT22;8771;48.048;7.682;2023-03-03T16:48:00;9.90;68.70
17307;DHT22;8771;48.048;7.682;2023-03-03T16:53:14;9.90;68.70
17307;DHT22;8771;48.048;7.682;2023-03-03T16:58:29;9.80;68.70
17307;DHT22;8771;48.048;7.682;2023-03-03T17:03:49;9.70;68.70
17307;DHT22;8771;48.048;7.682;2023-03-03T17:14:46;9.70;68.80
17307;DHT22;8771;48.048;7.682;2023-03-03T17:20:05;9.60;68.80
17307;DHT22;8771;48.048;7.682;2023-03-03T17:25:17;9.70;68.80
17307;DHT22;8771;48.048;7.682;2023-03-03T17:30:27;9.70;68.90
17307;DHT22;8771;48.048;7.682;2023-03-03T17:36:04;9.60;68.80
17307;DHT22;8771;48.048;7.682;2023-03-03T17:41:13;9.50;68.90
17307;DHT22;8771;48.048;7.682;2023-03-03T17:46:27;9.50;68.90
17307;DHT22;8771;48.048;7.682;2023-03-03T17:57:25;9.40;69.00
17307;DHT22;8771;48.048;7.682;2023-03-03T18:20:29;9.20;69.00
17307;DHT22;8771;48.048;7.682;2023-03-03T18:25:51;9.10;69.10
17307;DHT22;8771;48.048;7.682;2023-03-03T18:30:57;9.00;69.20
17307;DHT22;8771;48.048;7.682;2023-03-03T18:36:33;8.90;69.30
17307;DHT22;8771;48.048;7.682;2023-03-03T18:42:06;8.90;69.30
17307;DHT22;8771;48.048;7.682;2023-03-03T18:53:17;8.90;69.30
17307;DHT22;8771;48.048;7.682;2023-03-03T18:58:33;8.80;69.20
17307;DHT22;8771;48.048;7.682;2023-03-03T19:03:55;8.80;69.30
17307;DHT22;8771;48.048;7.682;2023-03-03T19:09:00;8.70;69.30
17307;DHT22;8771;48.048;7.682;2023-03-03T19:14:18;8.70;69.30
17307;DHT22;8771;48.048;7.682;2023-03-03T19:19:29;8.60;69.30
17307;DHT22;8771;48.048;7.682;2023-03-03T19:24:34;8.50;69.30
17307;DHT22;8771;48.048;7.682;2023-03-03T19:29:56;8.40;69.30
17307;DHT22;8771;48.048;7.682;2023-03-03T19:35:13;8.30;69.50
17307;DHT22;8771;48.048;7.682;2023-03-03T19:40:24;8.20;69.50
17307;DHT22;8771;48.048;7.682;2023-03-03T19:45:45;8.20;69.60
17307;DHT22;8771;48.048;7.682;2023-03-03T19:50:54;8.10;69.60
17307;DHT22;8771;48.048;7.682;2023-03-03T19:56:09;8.00;69.60
17307;DHT22;8771;48.048;7.682;2023-03-03T20:01:21;7.90;69.70
17307;DHT22;8771;48.048;7.682;2023-03-03T20:06:50;7.80;69.70
17307;DHT22;8771;48.048;7.682;2023-03-03T20:12:09;7.70;69.70
17307;DHT22;8771;48.048;7.682;2023-03-03T20:22:51;7.60;69.70
17307;DHT22;8771;48.048;7.682;2023-03-03T20:28:04;7.50;69.70
17307;DHT22;8771;48.048;7.682;2023-03-03T20:33:18;7.50;69.80
17307;DHT22;8771;48.048;7.682;2023-03-03T20:38:30;7.30;69.80
17307;DHT22;8771;48.048;7.682;2023-03-03T20:49:12;7.10;69.40
17307;DHT22;8771;48.048;7.682;2023-03-03T20:54:22;7.00;70.20
17307;DHT22;8771;48.048;7.682;2023-03-03T20:59:32;6.90;70.10
17307;DHT22;8771;48.048;7.682;2023-03-03T21:04:38;6.80;70.10
17307;DHT22;8771;48.048;7.682;2023-03-03T21:09:40;6.70;70.10
17307;DHT22;8771;48.048;7.682;2023-03-03T21:14:42;6.70;70.20
17307;DHT22;8771;48.048;7.682;2023-03-03T21:20:24;6.60;70.30
17307;DHT22;8771;48.048;7.682;2023-03-03T21:25:48;6.40;70.30
17307;DHT22;8771;48.048;7.682;2023-03-03T21:31:02;6.30;70.20
17307;DHT22;8771;48.048;7.682;2023-03-03T21:36:07;6.20;70.30
17307;DHT22;8771;48.048;7.682;2023-03-03T21:47:11;6.00;70.40
17307;DHT22;8771;48.048;7.682;2023-03-03T21:52:18;5.90;70.30
17307;DHT22;8771;48.048;7.682;2023-03-03T21:57:21;5.80;70.40
17307;DHT22;8771;48.048;7.682;2023-03-03T22:02:33;5.70;70.50
17307;DHT22;8771;48.048;7.682;2023-03-03T22:07:36;5.60;71.30
17307;DHT22;8771;48.048;7.682;2023-03-03T22:12:38;5.50;70.60
17307;DHT22;8771;48.048;7.682;2023-03-03T22:23:41;5.40;70.80
17307;DHT22;8771;48.048;7.682;2023-03-03T22:28:43;5.30;70.60
17307;DHT22;8771;48.048;7.682;2023-03-03T22:33:45;5.20;70.70
17307;DHT22;8771;48.048;7.682;2023-03-03T22:38:49;5.20;70.80
17307;DHT22;8771;48.048;7.682;2023-03-03T22:43:51;5.10;70.80
17307;DHT22;8771;48.048;7.682;2023-03-03T22:49:03;5.00;70.80
17307;DHT22;8771;48.048;7.682;2023-03-03T23:00:24;4.90;70.90
17307;DHT22;8771;48.048;7.682;2023-03-03T23:05:37;4.90;70.90
17307;DHT22;8771;48.048;7.682;2023-03-03T23:10:49;4.80;70.80
17307;DHT22;8771;48.048;7.682;2023-03-03T23:16:02;4.70;70.70
17307;DHT22;8771;48.048;7.682;2023-03-03T23:21:42;4.60;70.70
17307;DHT22;8771;48.048;7.682;2023-03-03T23:26:54;4.60;70.90
17307;DHT22;8771;48.048;7.682;2023-03-03T23:31:59;4.50;70.90
17307;DHT22;8771;48.048;7.682;2023-03-03T23:43:29;4.30;70.90
17307;DHT22;8771;48.048;7.682;2023-03-03T23:48:52;4.20;70.90
17307;DHT22;8771;48.048;7.682;2023-03-03T23:53:54;4.20;71.00
17307;DHT22;8771;48.048;7.682;2023-03-03T23:58:57;4.10;70.90
